KSBM/SBM METAR and TAF weather

Enter ICAO airport designator
Station Type Date Time Source
KSBM METAR 2019/02/17 15:53 UTC NOAA

KSBM 171553Z AUTO 09011KT 10SM OVC017 M04/M09 A2999 RMK AO2 SLP169 T10441089


Station Type Date Time Source
KSBM Decoded METAR 2019/02/17 15:53 UTC NOAA

SHEBOYGAN CO MEMORIAL AIRPORT , WI, United States (KSBM) 43-47N 87-51W 232M
Feb 17, 2019 - 10:53 AM EST / 2019.02.17 1553 UTC
Wind: from the E (090 degrees) at 13 MPH (11 KT):0
Visibility: 10 mile(s):0
Sky conditions: overcast
Temperature: 24.1 F (-4.4 C)
Windchill: 12 F (-11 C):1
Dew Point: 16.0 F (-8.9 C)
Relative Humidity: 70%
Pressure (altimeter): 29.99 in. Hg (1015 hPa)
ob: KSBM 171553Z AUTO 09011KT 10SM OVC017 M04/M09 A2999 RMK AO2 SLP169 T10441089
cycle: 16

Station Type Date Time Source
KSBM TAF UTC NOAA

Error!


Example: see airport list